Time;durP1;ratioP1;P1;durP2;ratioP2;P2;SDS_P1;SDS_P2;PMS_P1;PMS_P2;Temp;Humidity;BMP_temperature;BMP_pressure;BME280_temperature;BME280_humidity;BME280_pressure;Samples;Min_cycle;Max_cycle;Signal;HPM_P1;HPM_P2
2022/04/19 00:00:16;;;;;;;1.47;1.20;;;18.70;43.30;;;;;;5040997;28;20168;-92
2022/04/19 00:02:46;;;;;;;1.67;1.23;;;18.70;43.30;;;;;;5041201;28;20339;-92
2022/04/19 00:05:12;;;;;;;1.60;1.43;;;18.70;43.30;;;;;;5058333;28;20614;-92
2022/04/19 00:07:38;;;;;;;1.30;1.20;;;18.70;43.40;;;;;;5040818;28;20204;-92
2022/04/19 00:10:07;;;;;;;1.73;1.30;;;18.70;43.30;;;;;;5057883;28;20297;-92
2022/04/19 00:12:43;;;;;;;1.87;1.30;;;18.60;43.30;;;;;;5041123;28;20172;-92
2022/04/19 00:15:09;;;;;;;2.30;1.40;;;18.70;43.40;;;;;;5041020;28;20171;-91
2022/04/19 00:17:35;;;;;;;2.50;1.40;;;18.60;43.40;;;;;;5040708;28;20182;-91
2022/04/19 00:20:01;;;;;;;3.23;1.47;;;18.60;43.40;;;;;;5040797;28;20172;-92
2022/04/19 00:22:33;;;;;;;1.53;1.30;;;18.60;43.40;;;;;;5041202;28;20230;-92
2022/04/19 00:24:59;;;;;;;2.33;1.30;;;18.60;43.40;;;;;;5040876;28;20191;-91
2022/04/19 00:27:25;;;;;;;2.03;1.53;;;18.60;43.40;;;;;;5040229;28;20177;-91
2022/04/19 00:29:53;;;;;;;3.70;1.10;;;18.60;43.40;;;;;;5040522;28;20300;-91
2022/04/19 00:32:26;;;;;;;2.20;1.40;;;18.50;43.40;;;;;;5057634;28;20152;-91
2022/04/19 00:34:51;;;;;;;1.60;1.30;;;18.50;43.40;;;;;;5057937;28;20207;-91
2022/04/19 00:37:21;;;;;;;3.23;1.40;;;18.50;43.40;;;;;;5040571;28;20173;-91
2022/04/19 00:39:47;;;;;;;1.40;1.27;;;18.50;43.80;;;;;;5040118;28;20176;-91
2022/04/19 00:42:13;;;;;;;1.87;1.20;;;18.50;43.40;;;;;;5040315;28;20227;-91
2022/04/19 00:44:39;;;;;;;2.00;1.67;;;18.50;43.50;;;;;;5039554;28;20185;-91
2022/04/19 00:47:09;;;;;;;2.37;1.40;;;18.50;43.50;;;;;;5040302;28;20271;-91
2022/04/19 00:49:40;;;;;;;1.47;1.10;;;18.40;43.40;;;;;;5057664;28;20298;-92
2022/04/19 00:52:09;;;;;;;2.13;1.20;;;18.50;43.60;;;;;;5040669;28;20175;-92
2022/04/19 00:54:35;;;;;;;2.20;1.40;;;18.40;43.50;;;;;;5041076;28;20175;-92
2022/04/19 00:57:02;;;;;;;3.30;1.57;;;18.40;43.50;;;;;;5040608;28;20170;-92
2022/04/19 00:59:28;;;;;;;1.63;1.20;;;18.40;43.50;;;;;;5040709;28;20783;-92
2022/04/19 01:02:00;;;;;;;2.13;1.50;;;18.40;43.50;;;;;;5040721;28;20179;-92
2022/04/19 01:04:26;;;;;;;1.47;1.37;;;18.40;43.60;;;;;;5040650;28;20226;-92
2022/04/19 01:06:52;;;;;;;2.07;1.57;;;18.40;43.60;;;;;;5040711;28;20341;-92
2022/04/19 01:09:20;;;;;;;2.17;1.33;;;18.40;43.60;;;;;;5044457;28;20234;-92
2022/04/19 01:14:51;;;;;;;1.30;1.20;;;18.30;43.60;;;;;;5000174;28;20179;-92
2022/04/19 01:17:17;;;;;;;2.70;1.40;;;18.30;43.60;;;;;;4984254;28;20209;-92
2022/04/19 01:19:43;;;;;;;1.37;1.20;;;18.30;43.60;;;;;;5011819;28;20294;-92
2022/04/19 01:22:12;;;;;;;3.03;1.40;;;18.30;43.60;;;;;;5044448;28;20299;-92
2022/04/19 01:25:01;;;;;;;2.37;1.33;;;18.30;43.60;;;;;;5043830;28;20736;-92
2022/04/19 01:27:27;;;;;;;1.77;1.30;;;18.30;43.60;;;;;;5043436;28;20164;-92
2022/04/19 01:30:00;;;;;;;1.50;1.40;;;18.30;43.60;;;;;;5043492;28;20238;-91
2022/04/19 01:32:29;;;;;;;2.27;1.40;;;18.20;43.70;;;;;;5043183;28;20171;-92
2022/04/19 01:35:30;;;;;;;1.43;1.33;;;18.30;43.70;;;;;;5043894;28;20168;-92
2022/04/19 01:37:56;;;;;;;1.40;1.27;;;18.20;43.70;;;;;;5043660;28;20193;-92
2022/04/19 01:40:21;;;;;;;1.80;1.30;;;18.20;43.70;;;;;;5044056;28;20184;-92
2022/04/19 01:42:50;;;;;;;1.43;1.27;;;18.20;43.70;;;;;;5044401;28;20169;-92
2022/04/19 01:45:23;;;;;;;2.00;1.30;;;18.20;43.70;;;;;;5043067;28;20178;-92
2022/04/19 01:47:49;;;;;;;2.83;1.43;;;18.10;43.60;;;;;;5043673;28;20178;-92
2022/04/19 01:50:17;;;;;;;2.50;1.40;;;18.10;43.70;;;;;;5016614;28;20309;-92
2022/04/19 01:52:44;;;;;;;1.80;1.30;;;18.10;43.50;;;;;;5036723;28;20165;-92
2022/04/19 01:55:13;;;;;;;1.30;1.20;;;18.10;43.70;;;;;;5043220;28;20168;-92
2022/04/19 01:57:41;;;;;;;2.43;1.27;;;18.10;43.70;;;;;;5043527;28;20166;-91
2022/04/19 02:00:07;;;;;;;1.80;1.53;;;18.10;44.10;;;;;;5042865;28;20189;-91
2022/04/19 02:02:33;;;;;;;1.60;1.37;;;18.10;43.70;;;;;;5042948;28;20233;-91
2022/04/19 02:04:59;;;;;;;1.43;1.30;;;18.00;43.70;;;;;;5043350;28;20202;-91
2022/04/19 02:07:24;;;;;;;2.20;1.40;;;18.00;43.70;;;;;;5042876;28;20559;-91
2022/04/19 02:09:57;;;;;;;2.03;1.33;;;18.00;43.70;;;;;;5042709;28;20199;-91
2022/04/19 02:12:24;;;;;;;1.27;1.03;;;18.00;43.70;;;;;;5043410;28;20237;-91
2022/04/19 02:14:49;;;;;;;2.20;1.37;;;18.00;43.70;;;;;;5042800;28;20178;-91
2022/04/19 02:17:18;;;;;;;1.17;1.07;;;18.00;43.70;;;;;;5042990;28;20175;-91
2022/04/19 02:20:02;;;;;;;1.30;1.20;;;18.00;43.70;;;;;;5041733;28;20233;-91
2022/04/19 02:22:28;;;;;;;1.50;1.33;;;18.00;43.80;;;;;;5043327;28;20172;-91
2022/04/19 02:24:56;;;;;;;1.87;1.50;;;17.90;43.70;;;;;;5042955;28;20197;-91
2022/04/19 02:27:24;;;;;;;1.87;1.03;;;17.90;43.70;;;;;;5042670;28;20185;-91
2022/04/19 02:29:54;;;;;;;1.30;1.20;;;17.90;43.70;;;;;;5043127;28;20203;-92
2022/04/19 02:32:20;;;;;;;1.50;1.30;;;17.90;43.70;;;;;;5042706;28;20173;-92
2022/04/19 02:34:47;;;;;;;2.73;1.30;;;17.90;43.80;;;;;;5042510;28;20265;-92
2022/04/19 02:37:13;;;;;;;1.63;1.30;;;17.90;43.70;;;;;;5042678;28;20228;-92
2022/04/19 02:39:38;;;;;;;1.70;1.60;;;17.90;43.70;;;;;;5042565;28;20201;-91
2022/04/19 02:42:06;;;;;;;2.37;1.30;;;17.90;43.80;;;;;;5042396;28;20173;-92
2022/04/19 02:44:32;;;;;;;1.70;1.20;;;17.80;43.70;;;;;;5042615;28;20463;-92
2022/04/19 02:47:17;;;;;;;1.27;1.10;;;17.80;43.80;;;;;;5059691;28;20390;-92
2022/04/19 02:49:45;;;;;;;1.20;1.10;;;17.80;43.80;;;;;;5042144;28;20200;-92
2022/04/19 02:52:11;;;;;;;1.33;1.23;;;17.80;43.90;;;;;;5042178;28;20527;-92
2022/04/19 02:54:37;;;;;;;2.10;1.30;;;17.80;43.80;;;;;;5042346;28;20166;-92
2022/04/19 02:57:16;;;;;;;1.30;1.10;;;17.80;43.80;;;;;;5042601;28;20266;-92
2022/04/19 02:59:44;;;;;;;1.57;1.20;;;17.80;43.80;;;;;;5042232;28;20205;-92
2022/04/19 03:02:10;;;;;;;2.33;1.30;;;17.70;43.80;;;;;;5042527;28;20181;-91
2022/04/19 03:04:35;;;;;;;1.47;1.20;;;17.70;43.80;;;;;;5042218;28;20181;-92
2022/04/19 03:07:01;;;;;;;1.97;1.20;;;17.70;43.80;;;;;;5042142;28;20217;-91
2022/04/19 03:09:27;;;;;;;1.40;1.30;;;17.70;43.80;;;;;;5041826;28;20281;-91
2022/04/19 03:11:55;;;;;;;1.70;1.30;;;17.70;43.80;;;;;;5041807;28;20183;-91
2022/04/19 03:14:21;;;;;;;1.40;1.30;;;17.70;43.80;;;;;;5041955;28;20180;-92
2022/04/19 03:16:47;;;;;;;1.83;1.70;;;17.70;43.80;;;;;;5042030;28;20568;-91
2022/04/19 03:19:13;;;;;;;1.67;1.20;;;17.60;43.80;;;;;;5041802;28;20178;-91
2022/04/19 03:22:23;;;;;;;1.40;1.30;;;17.60;43.80;;;;;;5041972;28;20446;-92
2022/04/19 03:27:42;;;;;;;1.30;1.20;;;17.60;43.80;;;;;;5058977;28;20248;-92
2022/04/19 03:30:14;;;;;;;1.60;1.40;;;17.60;43.80;;;;;;5041136;28;20306;-91
2022/04/19 03:32:43;;;;;;;2.60;1.27;;;17.60;43.80;;;;;;5041882;28;20634;-92
2022/04/19 03:35:10;;;;;;;1.60;1.30;;;17.50;43.70;;;;;;5041544;28;20516;-91
2022/04/19 03:37:38;;;;;;;1.30;1.20;;;17.50;43.80;;;;;;5041320;28;20201;-92
2022/04/19 03:40:05;;;;;;;1.67;1.40;;;17.50;43.80;;;;;;5040923;28;20270;-91
2022/04/19 03:42:31;;;;;;;1.63;1.40;;;17.50;43.80;;;;;;5058396;28;20172;-91
2022/04/19 03:45:26;;;;;;;1.60;1.30;;;17.50;43.80;;;;;;5041388;28;20563;-91
2022/04/19 03:47:52;;;;;;;1.80;1.40;;;17.50;43.80;;;;;;5041319;28;20175;-92
2022/04/19 03:50:18;;;;;;;1.47;1.20;;;17.50;43.80;;;;;;5040946;28;20704;-91
2022/04/19 03:52:44;;;;;;;1.37;1.27;;;17.50;43.80;;;;;;5041008;28;20553;-91
2022/04/19 03:55:23;;;;;;;2.20;1.30;;;17.50;43.80;;;;;;5040828;28;20165;-92
2022/04/19 03:57:49;;;;;;;1.60;1.40;;;17.40;43.80;;;;;;5041233;28;20365;-92
2022/04/19 04:00:15;;;;;;;1.63;1.23;;;17.40;43.80;;;;;;5040749;28;20178;-91
2022/04/19 04:02:40;;;;;;;1.53;1.30;;;17.40;43.80;;;;;;5041564;28;20171;-91
2022/04/19 04:05:17;;;;;;;1.73;1.40;;;17.40;43.80;;;;;;5041182;28;20226;-91
2022/04/19 04:07:42;;;;;;;1.60;1.50;;;17.40;43.80;;;;;;5041020;28;20152;-91
2022/04/19 04:10:09;;;;;;;1.73;1.47;;;17.40;43.80;;;;;;5039280;28;20237;-92
2022/04/19 04:12:35;;;;;;;1.97;1.50;;;17.40;43.80;;;;;;5038281;28;20170;-91
2022/04/19 04:15:04;;;;;;;1.60;1.43;;;17.30;43.70;;;;;;5040365;28;20183;-91
2022/04/19 04:17:30;;;;;;;1.37;1.27;;;17.30;43.70;;;;;;5040481;28;20241;-91
2022/04/19 04:20:02;;;;;;;2.80;1.30;;;17.30;43.80;;;;;;5040683;28;20175;-91
2022/04/19 04:22:28;;;;;;;1.50;1.20;;;17.30;43.70;;;;;;5040679;28;20186;-91
2022/04/19 04:24:58;;;;;;;1.70;1.30;;;17.30;43.70;;;;;;5040234;28;20179;-91
2022/04/19 04:27:24;;;;;;;1.23;1.13;;;17.30;43.70;;;;;;5040194;28;20181;-91
2022/04/19 04:29:49;;;;;;;1.50;1.30;;;17.30;43.80;;;;;;5039946;28;20207;-91
2022/04/19 04:32:15;;;;;;;1.73;1.13;;;17.30;43.80;;;;;;5040640;28;20273;-91
2022/04/19 04:34:41;;;;;;;2.33;1.37;;;17.20;43.70;;;;;;5040571;28;20278;-91
2022/04/19 04:37:07;;;;;;;1.60;1.30;;;17.20;43.70;;;;;;5040472;28;20292;-91
2022/04/19 04:39:33;;;;;;;2.50;1.30;;;17.20;43.70;;;;;;5040205;28;20690;-92
2022/04/19 04:41:58;;;;;;;1.77;1.30;;;17.20;43.70;;;;;;5039195;28;20177;-91
2022/04/19 04:44:32;;;;;;;1.57;1.30;;;17.20;43.70;;;;;;5040166;28;20185;-91
2022/04/19 04:49:42;;;;;;;2.90;1.40;;;17.20;43.70;;;;;;5056680;28;20194;-91
2022/04/19 04:52:11;;;;;;;1.87;1.53;;;17.20;43.70;;;;;;5057306;28;20169;-91
2022/04/19 04:54:38;;;;;;;2.97;1.30;;;17.20;43.70;;;;;;5056754;28;20174;-91
2022/04/19 04:57:04;;;;;;;2.27;1.43;;;17.20;43.70;;;;;;5056598;28;20543;-91
2022/04/19 04:59:34;;;;;;;2.40;1.40;;;17.10;43.60;;;;;;5039328;28;20174;-91
2022/04/19 05:02:00;;;;;;;1.77;1.30;;;17.20;43.70;;;;;;5039201;28;20186;-91
2022/04/19 05:04:25;;;;;;;2.20;1.20;;;17.10;43.60;;;;;;5039810;28;20253;-91
2022/04/19 05:06:51;;;;;;;2.07;1.40;;;17.10;43.60;;;;;;5039496;28;20438;-91
2022/04/19 05:09:26;;;;;;;1.53;1.43;;;17.10;43.60;;;;;;5039091;28;20170;-91
2022/04/19 05:11:52;;;;;;;2.00;1.40;;;17.10;43.60;;;;;;5039568;28;20181;-91
2022/04/19 05:14:19;;;;;;;1.77;1.30;;;17.10;43.60;;;;;;5038886;28;20276;-91
2022/04/19 05:16:45;;;;;;;3.23;1.50;;;17.20;43.60;;;;;;5039465;28;20558;-91
2022/04/19 05:19:20;;;;;;;2.33;1.50;;;17.20;43.60;;;;;;5038758;28;20770;-91
2022/04/19 05:21:46;;;;;;;1.70;1.50;;;17.30;43.50;;;;;;5039026;28;20179;-91
2022/04/19 05:24:12;;;;;;;1.70;1.40;;;17.30;43.50;;;;;;5038786;28;20224;-91
2022/04/19 05:26:38;;;;;;;1.53;1.10;;;17.40;43.40;;;;;;5038984;28;20449;-92
2022/04/19 05:29:22;;;;;;;1.97;1.40;;;17.40;43.30;;;;;;5056080;28;20160;-91
2022/04/19 05:31:48;;;;;;;1.80;1.57;;;17.50;43.20;;;;;;5055731;28;20535;-91
2022/04/19 05:34:14;;;;;;;1.57;1.40;;;17.50;43.20;;;;;;5038651;28;20226;-92
2022/04/19 05:36:40;;;;;;;2.00;1.50;;;17.50;43.10;;;;;;5037593;28;20468;-92
2022/04/19 05:39:05;;;;;;;3.60;1.80;;;17.60;43.10;;;;;;5038414;28;20463;-91
2022/04/19 05:41:31;;;;;;;1.77;1.40;;;17.60;43.00;;;;;;5039231;28;20172;-92
2022/04/19 05:43:57;;;;;;;2.23;1.47;;;17.70;42.90;;;;;;5039243;28;20164;-91
2022/04/19 05:46:23;;;;;;;1.87;1.40;;;17.70;42.90;;;;;;5038532;28;20180;-91
2022/04/19 05:48:49;;;;;;;1.40;1.30;;;17.70;42.80;;;;;;5038043;28;20504;-91
2022/04/19 05:51:15;;;;;;;3.03;1.60;;;17.80;42.90;;;;;;5037723;28;20212;-91
2022/04/19 05:53:40;;;;;;;1.80;1.40;;;17.80;42.80;;;;;;5039508;28;20265;-91
2022/04/19 05:56:11;;;;;;;2.27;1.40;;;17.90;42.90;;;;;;5041854;28;20433;-91
2022/04/19 05:58:37;;;;;;;2.47;1.70;;;17.90;42.80;;;;;;5041991;28;20244;-91
2022/04/19 06:01:03;;;;;;;2.40;1.50;;;17.90;42.80;;;;;;5041952;28;20275;-91
2022/04/19 06:06:18;;;;;;;3.43;1.80;;;18.00;42.70;;;;;;5030530;28;20192;-92
2022/04/19 06:08:43;;;;;;;1.93;1.50;;;18.10;42.70;;;;;;5040481;28;20181;-92
2022/04/19 06:11:12;;;;;;;1.67;1.50;;;18.10;42.60;;;;;;5040910;28;20668;-92
2022/04/19 06:13:39;;;;;;;2.17;1.50;;;18.20;42.60;;;;;;5041538;28;20488;-92
2022/04/19 06:16:06;;;;;;;2.00;1.47;;;18.20;42.50;;;;;;5041542;28;20175;-92
2022/04/19 06:18:31;;;;;;;6.23;1.77;;;18.30;42.50;;;;;;5041410;28;20176;-92
2022/04/19 06:20:57;;;;;;;4.90;2.03;;;18.50;43.70;;;;;;5059898;28;20183;-91
2022/04/19 06:23:25;;;;;;;4.47;1.70;;;18.60;43.50;;;;;;5042021;28;20260;-92
2022/04/19 06:25:51;;;;;;;3.37;1.80;;;18.70;43.00;;;;;;5058615;28;20175;-91
2022/04/19 06:28:17;;;;;;;2.80;1.80;;;18.70;42.90;;;;;;5058356;28;20173;-92
2022/04/19 06:30:43;;;;;;;4.27;2.10;;;18.80;42.70;;;;;;5058317;28;20299;-92
2022/04/19 06:33:11;;;;;;;3.87;2.00;;;18.90;42.70;;;;;;5040439;28;20357;-92
2022/04/19 06:35:37;;;;;;;2.43;2.00;;;19.20;42.40;;;;;;5040623;28;20271;-91
2022/04/19 06:38:03;;;;;;;4.43;1.80;;;19.40;42.20;;;;;;5041109;28;20287;-92
2022/04/19 06:40:28;;;;;;;3.40;2.20;;;19.60;41.90;;;;;;5057331;28;20460;-92
2022/04/19 06:42:57;;;;;;;2.77;2.10;;;19.80;41.90;;;;;;5057030;28;20176;-92
2022/04/19 06:45:29;;;;;;;2.97;1.97;;;19.90;41.60;;;;;;5039633;28;20168;-92
2022/04/19 06:47:59;;;;;;;4.90;2.37;;;20.00;41.50;;;;;;5040222;28;20237;-92
2022/04/19 06:50:25;;;;;;;6.13;2.63;;;20.10;41.40;;;;;;5039629;28;20217;-92
2022/04/19 06:52:54;;;;;;;3.53;2.50;;;20.20;41.40;;;;;;5039325;28;20502;-92
2022/04/19 06:55:21;;;;;;;3.80;2.50;;;20.30;41.40;;;;;;5038363;28;20578;-92
2022/04/19 06:57:48;;;;;;;3.50;2.20;;;20.40;41.40;;;;;;5039889;28;20172;-93
2022/04/19 07:00:15;;;;;;;4.80;2.40;;;20.40;41.20;;;;;;5038514;28;20199;-92
2022/04/19 07:02:40;;;;;;;5.47;2.70;;;20.50;41.30;;;;;;5040314;28;20271;-92
2022/04/19 07:05:08;;;;;;;3.73;2.67;;;20.60;41.10;;;;;;5056260;28;20264;-92
2022/04/19 07:07:34;;;;;;;5.13;2.70;;;20.70;40.90;;;;;;5037371;28;20478;-92
2022/04/19 07:09:59;;;;;;;3.00;2.27;;;20.70;40.80;;;;;;5039133;28;20216;-92
2022/04/19 07:12:25;;;;;;;4.47;2.70;;;20.80;40.70;;;;;;5038849;28;20765;-92
2022/04/19 07:14:52;;;;;;;4.00;2.80;;;20.90;40.60;;;;;;5038599;28;20563;-91
2022/04/19 07:17:18;;;;;;;3.43;2.60;;;21.00;40.50;;;;;;5038581;28;20207;-91
2022/04/19 07:28:03;;;;;;;4.53;3.07;;;21.30;40.50;;;;;;5055298;28;20719;-93
2022/04/19 07:30:29;;;;;;;3.87;2.77;;;21.40;40.30;;;;;;5039066;28;20200;-92
2022/04/19 07:33:02;;;;;;;4.53;3.30;;;21.50;40.20;;;;;;5038858;28;20182;-92
2022/04/19 07:35:28;;;;;;;3.90;3.23;;;21.50;40.10;;;;;;5039862;28;20168;-91
2022/04/19 07:37:54;;;;;;;5.03;2.80;;;21.60;40.00;;;;;;5039666;28;20280;-93
2022/04/19 07:40:19;;;;;;;4.73;2.87;;;21.60;39.90;;;;;;5038664;28;20202;-92
2022/04/19 07:42:47;;;;;;;4.67;3.23;;;21.70;39.80;;;;;;5039366;28;20276;-92
2022/04/19 07:45:13;;;;;;;3.47;2.90;;;21.80;39.80;;;;;;5038346;28;20184;-93
2022/04/19 07:47:39;;;;;;;4.00;2.70;;;21.90;39.80;;;;;;5036833;28;20234;-92
2022/04/19 07:50:05;;;;;;;3.63;2.90;;;22.00;39.60;;;;;;5036584;28;20484;-93
2022/04/19 07:52:31;;;;;;;3.80;2.90;;;22.00;39.50;;;;;;5037475;28;20225;-93
2022/04/19 07:54:57;;;;;;;5.17;2.77;;;22.10;39.50;;;;;;5037739;28;20210;-93
2022/04/19 07:57:22;;;;;;;5.00;3.03;;;22.20;39.50;;;;;;5037759;28;20208;-93
2022/04/19 07:59:53;;;;;;;3.77;2.87;;;22.30;39.60;;;;;;5038419;28;20173;-93
2022/04/19 08:02:19;;;;;;;3.77;3.23;;;22.30;39.60;;;;;;5038540;28;20177;-93
2022/04/19 08:04:45;;;;;;;3.90;2.80;;;22.40;39.60;;;;;;5037936;28;20234;-93
2022/04/19 08:07:11;;;;;;;5.00;3.27;;;22.50;39.50;;;;;;5038481;28;20172;-93
2022/04/19 08:09:37;;;;;;;5.15;3.20;;;22.60;39.30;;;;;;5038814;28;20210;-92
2022/04/19 08:12:05;;;;;;;3.75;3.05;;;22.60;39.20;;;;;;5037582;28;20169;-92
2022/04/19 08:14:31;;;;;;;5.70;3.10;;;22.70;39.10;;;;;;5037432;28;20226;-92
2022/04/19 08:16:57;;;;;;;3.75;3.03;;;22.80;39.10;;;;;;5037553;28;20187;-93
2022/04/19 08:19:23;;;;;;;3.95;2.95;;;22.80;39.50;;;;;;5037762;28;20230;-92
2022/04/19 08:21:50;;;;;;;3.50;3.10;;;22.90;39.00;;;;;;5037670;28;20175;-92
2022/04/19 08:24:15;;;;;;;5.95;2.97;;;22.90;39.00;;;;;;5038543;28;20179;-92
2022/04/19 08:26:41;;;;;;;3.95;3.03;;;23.00;38.90;;;;;;5038240;28;20172;-92
2022/04/19 08:29:07;;;;;;;4.07;2.92;;;23.10;38.80;;;;;;5037874;28;20176;-92
2022/04/19 08:31:34;;;;;;;3.75;2.90;;;23.20;38.70;;;;;;5037705;28;20234;-92
2022/04/19 08:34:01;;;;;;;3.40;3.00;;;23.30;38.60;;;;;;5038192;28;20172;-92
2022/04/19 08:36:27;;;;;;;6.43;3.28;;;23.30;38.50;;;;;;5037804;28;20442;-92
2022/04/19 08:38:52;;;;;;;5.43;3.30;;;23.40;38.90;;;;;;5037076;28;20195;-92
2022/04/19 08:41:20;;;;;;;3.08;2.78;;;23.40;38.40;;;;;;5038029;28;20219;-92
2022/04/19 08:43:47;;;;;;;5.10;2.72;;;23.40;38.40;;;;;;5037487;28;20278;-91
2022/04/19 08:46:14;;;;;;;2.72;2.50;;;23.50;38.40;;;;;;5038419;28;20221;-93
2022/04/19 08:48:40;;;;;;;4.20;3.25;;;23.50;38.30;;;;;;5037243;28;20187;-93
2022/04/19 08:51:10;;;;;;;4.78;3.03;;;23.60;38.10;;;;;;5037389;28;20204;-93
2022/04/19 08:59:15;;;;;;;3.20;2.67;;;23.80;37.80;;;;;;5055200;28;20247;-92
2022/04/19 09:01:41;;;;;;;4.07;2.88;;;23.90;37.70;;;;;;5036837;28;20706;-92
2022/04/19 09:04:07;;;;;;;3.15;2.53;;;24.00;37.70;;;;;;5037325;28;20267;-92
2022/04/19 09:06:52;;;;;;;4.13;2.75;;;24.00;37.70;;;;;;5036435;28;20267;-92
2022/04/19 09:09:35;;;;;;;3.13;2.60;;;24.00;37.60;;;;;;5054352;28;20151;-92
2022/04/19 09:12:12;;;;;;;3.38;2.78;;;24.10;37.60;;;;;;5038105;28;20172;-93
2022/04/19 09:15:06;;;;;;;2.70;2.50;;;24.10;37.50;;;;;;5038390;28;20172;-93
2022/04/19 09:17:36;;;;;;;3.05;2.38;;;24.20;37.30;;;;;;5037481;28;20271;-93
2022/04/19 09:20:12;;;;;;;3.55;2.60;;;24.20;37.20;;;;;;5037031;28;20259;-89
2022/04/19 09:22:43;;;;;;;2.83;2.60;;;24.20;37.00;;;;;;5037212;28;20499;-89
2022/04/19 09:25:20;;;;;;;2.67;2.47;;;24.30;37.10;;;;;;5037019;28;20212;-90
2022/04/19 09:27:48;;;;;;;2.60;2.15;;;24.30;37.00;;;;;;5037069;28;20195;-89
2022/04/19 09:30:24;;;;;;;3.90;2.45;;;24.40;37.00;;;;;;5039752;28;20219;-90
2022/04/19 09:33:08;;;;;;;2.53;2.33;;;24.40;37.10;;;;;;5040259;28;20219;-91
2022/04/19 09:35:37;;;;;;;2.47;2.13;;;24.40;36.90;;;;;;5040687;28;20172;-89
2022/04/19 09:38:04;;;;;;;2.97;2.20;;;24.50;36.90;;;;;;5039798;28;20188;-90
2022/04/19 09:40:39;;;;;;;2.25;2.00;;;24.50;36.90;;;;;;5040902;28;20195;-91
2022/04/19 09:43:13;;;;;;;3.08;2.30;;;24.50;36.70;;;;;;5040177;28;20691;-90
2022/04/19 09:46:15;;;;;;;2.40;2.20;;;24.30;36.70;;;;;;5057905;28;20162;-90
2022/04/19 09:48:40;;;;;;;3.50;2.55;;;23.80;36.90;;;;;;5040509;28;20441;-90
2022/04/19 09:51:11;;;;;;;2.20;2.00;;;23.30;37.30;;;;;;5040311;28;20606;-91
2022/04/19 09:53:48;;;;;;;2.00;1.80;;;22.90;37.60;;;;;;5040811;28;20574;-91
2022/04/19 09:56:17;;;;;;;2.38;2.17;;;22.50;38.00;;;;;;5039295;28;20238;-92
2022/04/19 09:58:49;;;;;;;2.92;1.90;;;22.30;38.40;;;;;;5039975;28;20175;-91
2022/04/19 10:09:37;;;;;;;3.08;2.10;;;21.70;39.10;;;;;;5057931;28;20196;-92
2022/04/19 10:12:04;;;;;;;2.53;1.83;;;21.70;39.10;;;;;;5041033;28;20177;-91
2022/04/19 10:14:31;;;;;;;2.10;1.83;;;21.60;39.20;;;;;;5040034;28;20176;-91
2022/04/19 10:16:58;;;;;;;2.70;1.90;;;21.60;39.30;;;;;;5040376;28;20273;-90
2022/04/19 10:19:25;;;;;;;3.65;2.40;;;21.50;39.30;;;;;;5041080;28;20581;-91
2022/04/19 10:21:52;;;;;;;2.30;2.10;;;21.50;39.30;;;;;;5039319;28;20175;-90
2022/04/19 10:24:18;;;;;;;3.05;2.08;;;21.50;39.40;;;;;;5039598;28;20171;-90
2022/04/19 10:26:46;;;;;;;2.17;1.70;;;21.40;39.40;;;;;;5038867;28;20176;-91
2022/04/19 10:29:28;;;;;;;2.17;1.98;;;21.40;39.50;;;;;;5040535;28;20231;-90
2022/04/19 10:32:04;;;;;;;2.70;1.97;;;21.40;39.50;;;;;;5039049;28;20176;-90
2022/04/19 10:34:33;;;;;;;2.60;2.00;;;21.30;39.50;;;;;;5040387;28;20175;-90
2022/04/19 10:37:11;;;;;;;2.03;1.83;;;21.30;39.50;;;;;;5039642;28;20789;-89
2022/04/19 10:39:47;;;;;;;2.30;1.87;;;21.30;39.60;;;;;;5055418;28;20157;-90
2022/04/19 10:42:32;;;;;;;1.87;1.70;;;21.30;39.70;;;;;;5039727;28;20225;-89
2022/04/19 10:45:18;;;;;;;1.80;1.70;;;21.30;39.70;;;;;;5038560;28;20180;-90
2022/04/19 10:47:53;;;;;;;2.03;1.83;;;21.30;39.80;;;;;;5039111;28;20179;-90
2022/04/19 10:50:29;;;;;;;2.57;1.70;;;21.30;39.80;;;;;;5038227;28;20298;-90
2022/04/19 10:53:09;;;;;;;2.20;1.97;;;21.30;40.00;;;;;;5039870;28;20226;-90
2022/04/19 10:55:39;;;;;;;1.83;1.70;;;21.20;39.80;;;;;;5039640;28;20164;-89
2022/04/19 11:00:45;;;;;;;2.10;1.53;;;21.20;40.20;;;;;;5056358;28;20281;-91
2022/04/19 11:03:13;;;;;;;2.27;1.90;;;21.20;40.30;;;;;;5038543;28;20279;-90
2022/04/19 11:05:43;;;;;;;1.70;1.60;;;21.20;40.20;;;;;;5037710;28;20559;-89
2022/04/19 11:08:29;;;;;;;2.00;1.80;;;21.20;40.30;;;;;;5054881;28;20210;-89
2022/04/19 11:11:00;;;;;;;3.07;1.77;;;21.20;40.50;;;;;;5038238;28;20310;-89
2022/04/19 11:13:37;;;;;;;1.80;1.60;;;21.10;40.40;;;;;;5038112;28;20205;-89
2022/04/19 11:16:05;;;;;;;1.97;1.73;;;21.10;40.30;;;;;;5037347;28;20451;-92
2022/04/19 11:18:32;;;;;;;3.00;1.90;;;21.20;40.50;;;;;;5036767;28;20175;-92
2022/04/19 11:21:07;;;;;;;1.97;1.73;;;21.10;40.40;;;;;;5037299;28;20191;-92
2022/04/19 11:23:44;;;;;;;2.23;1.93;;;21.10;40.40;;;;;;5037738;28;20175;-92
2022/04/19 11:26:26;;;;;;;2.00;1.80;;;21.10;40.20;;;;;;5037821;28;20172;-92
2022/04/19 11:29:10;;;;;;;1.70;1.60;;;21.10;40.30;;;;;;5038400;28;20176;-92
2022/04/19 11:31:44;;;;;;;1.90;1.60;;;21.00;40.30;;;;;;5038354;28;20214;-92
2022/04/19 11:34:12;;;;;;;2.30;1.80;;;21.10;40.40;;;;;;5037814;28;20454;-93
2022/04/19 11:36:37;;;;;;;1.93;1.67;;;21.10;40.30;;;;;;5037073;28;20184;-93
2022/04/19 11:39:04;;;;;;;1.83;1.70;;;21.10;40.40;;;;;;5037190;28;20177;-92
2022/04/19 11:46:46;;;;;;;2.10;1.73;;;21.00;40.30;;;;;;5054262;28;20180;-92
2022/04/19 11:49:34;;;;;;;2.77;1.50;;;21.00;40.30;;;;;;5036693;28;20215;-93
2022/04/19 11:52:02;;;;;;;2.00;1.70;;;21.00;40.30;;;;;;5037418;28;20187;-94
2022/04/19 11:54:37;;;;;;;1.97;1.57;;;21.00;40.30;;;;;;5037502;28;20172;-93
2022/04/19 11:57:06;;;;;;;2.37;1.67;;;20.90;40.10;;;;;;5036438;28;20211;-92
2022/04/19 11:59:37;;;;;;;1.60;1.50;;;21.00;40.20;;;;;;5037541;28;20249;-93
2022/04/19 12:02:16;;;;;;;1.60;1.50;;;21.00;40.50;;;;;;5036469;28;20579;-93
2022/04/19 12:05:23;;;;;;;3.07;2.10;;;21.00;40.50;;;;;;5038009;28;20175;-94
2022/04/19 12:07:48;;;;;;;3.90;1.90;;;20.90;40.50;;;;;;5040339;28;20267;-94
2022/04/19 12:10:14;;;;;;;1.70;1.60;;;20.90;40.50;;;;;;5038136;28;20303;-93
2022/04/19 12:12:41;;;;;;;2.97;1.60;;;20.90;40.60;;;;;;5037810;28;20274;-93
2022/04/19 12:15:08;;;;;;;3.83;2.20;;;20.90;40.60;;;;;;5039168;28;20170;-94
2022/04/19 12:17:47;;;;;;;2.23;1.50;;;20.90;40.50;;;;;;5038225;28;20168;-93
2022/04/19 12:20:14;;;;;;;2.10;1.87;;;20.90;40.60;;;;;;5036648;28;20403;-94
2022/04/19 12:22:48;;;;;;;2.47;2.00;;;20.90;40.60;;;;;;5040091;28;20594;-93
2022/04/19 12:25:22;;;;;;;2.93;1.70;;;20.90;40.50;;;;;;5038241;28;20168;-94
2022/04/19 12:28:00;;;;;;;2.03;1.87;;;20.90;40.60;;;;;;5055296;28;20203;-94
2022/04/19 12:30:28;;;;;;;3.50;1.83;;;20.90;40.70;;;;;;5038783;28;20200;-94
2022/04/19 12:32:55;;;;;;;2.60;1.73;;;20.90;40.60;;;;;;5039535;28;20196;-94
2022/04/19 12:35:33;;;;;;;2.30;1.80;;;20.90;41.10;;;;;;5039047;28;20180;-94
2022/04/19 12:38:16;;;;;;;2.30;1.70;;;20.80;40.70;;;;;;5037098;28;20186;-93
2022/04/19 12:40:46;;;;;;;1.70;1.60;;;20.80;40.80;;;;;;5035963;28;20626;-92
2022/04/19 12:43:17;;;;;;;2.20;1.90;;;20.80;40.80;;;;;;5035158;28;20179;-93
2022/04/19 12:45:45;;;;;;;2.53;1.90;;;20.80;40.80;;;;;;5037668;28;20248;-93
2022/04/19 12:48:22;;;;;;;2.17;1.93;;;20.80;40.80;;;;;;5037374;28;20283;-93
2022/04/19 12:50:59;;;;;;;2.97;2.00;;;20.80;40.80;;;;;;5035976;28;20203;-92
2022/04/19 12:53:25;;;;;;;2.13;1.70;;;20.80;40.90;;;;;;5036834;28;20573;-91
2022/04/19 12:59:13;;;;;;;2.30;1.70;;;20.80;41.00;;;;;;5052919;28;20152;-92
2022/04/19 13:01:45;;;;;;;1.70;1.60;;;20.80;41.00;;;;;;5036535;28;20168;-92
2022/04/19 13:04:10;;;;;;;1.70;1.50;;;20.80;41.10;;;;;;5039719;28;20198;-92
2022/04/19 13:12:17;;;;;;;2.53;1.43;;;20.70;41.20;;;;;;5057772;28;20183;-93
2022/04/19 13:14:42;;;;;;;2.20;1.57;;;20.70;41.20;;;;;;5041956;28;20659;-94
2022/04/19 13:17:12;;;;;;;1.67;1.47;;;20.70;41.20;;;;;;5041459;28;20539;-92
2022/04/19 13:19:40;;;;;;;1.73;1.63;;;20.70;41.30;;;;;;5040994;28;20168;-93
2022/04/19 13:22:06;;;;;;;1.97;1.50;;;20.70;41.30;;;;;;5039573;28;20187;-93
2022/04/19 13:24:32;;;;;;;1.67;1.50;;;20.70;41.40;;;;;;5041839;28;20183;-93
2022/04/19 13:26:59;;;;;;;3.40;1.70;;;20.70;41.40;;;;;;5041109;28;20219;-94
2022/04/19 13:29:25;;;;;;;2.30;1.43;;;20.70;41.40;;;;;;5041130;28;20466;-92
2022/04/19 13:31:52;;;;;;;1.90;1.60;;;20.70;41.50;;;;;;5040990;28;20176;-93
2022/04/19 13:34:19;;;;;;;1.93;1.40;;;20.70;41.50;;;;;;5040870;28;20200;-93
2022/04/19 13:36:45;;;;;;;2.60;1.40;;;20.70;41.50;;;;;;5040942;28;20200;-93
2022/04/19 13:39:11;;;;;;;1.60;1.40;;;20.70;41.50;;;;;;5041602;28;20176;-92
2022/04/19 13:41:41;;;;;;;2.13;1.30;;;20.70;41.50;;;;;;5041313;28;20187;-93
2022/04/19 13:44:10;;;;;;;2.03;1.20;;;20.70;41.50;;;;;;5041387;28;20218;-93
2022/04/19 13:46:45;;;;;;;1.50;1.40;;;20.60;41.50;;;;;;5040090;28;20187;-93
2022/04/19 13:49:12;;;;;;;1.93;1.33;;;20.60;41.50;;;;;;5040220;28;20179;-94